Portada
METAR-TAF:

METAR-TAF

Aeropuertos :

Rivas, Nicaragua

latitud: 11-25N, longitud: 085-50W, altitud: 53 m

Observación

El informe se hizo hace 12 horas y 3 minutos, a las 23:00 UTC
Viento 8 kt del este
Temperatura 28°C
Humedad 74%
Presión 1009 hPa
Visibilidad 10 km o más
Escasas nubes a una altura de 1200 ft, Cumulus congestus.
Cielo nuboso a una altura de 6000 ft

METAR: MNRS 242300Z 10008KT 9999 FEW012TCU BKN060 28/23 Q1009 TCU/E

Hora: 05:03 (11:03 UTC)


TAF: falta

Observaciones y pronósticos meteorológicos de más de 4000 aeropuertos (mensajes METAR y TAF).

Los puntos amarillos y rojos representan las estaciones disponibles.

Ponga el ratón en el punto deseado para ver el nombre de la estación.

Haga clic para ver las observaciones y los pronósticos meteorológicos.

Para cambiar el mapa : haga clic en los botones verdes con una cruz de color negro para hacer un zoom, en el botón verde con un guión para alejar o en las flechas verdes para mapas adyacentes.


METAR-TAF: